Malaysia Virtual Airlines Airport Information Service

Jakarta / Soekarno-Hatta

ICAO: WIII Country: Indonesia
Latitude: -6.12557 Longitude: 106.656
Latest Arrival : AK384 (WMKK-WIII) Latest Departure : MH726 (WIII-WMKK)


WX CaptureLIVE
Data provided by noaa.gov | Fetched at 15:41:42

METAR : WIII 261500Z 18004KT 7000 FEW021 25/20 Q1011 NOSIG

TAF : WIII 261100Z 2612/2718 19005KT 8000 SCT020 BECMG 2614/2616 4000 HZ BECMG 2700/2702 08011KT NSW


Runway Data for WIII
Data provided by openaviationdata.com

Runway ID Mag Var Hdg Length Elevation Surface ILS Freq ILS Id ILS Slope
07L 0 68° 11803 ft 34 ft Concrete 111.5 ICHL 3
07R 0 68° 12011 ft 34 ft Concrete 110.5 ICHR 3
25L 0 248° 12011 ft 34 ft Concrete 111.1 ICGL 3
25R 0 248° 11803 ft 34 ft Concrete 110.9 ICGR 3

Jakarta / Soekarno-Hatta, Indonesia
Use only for reference purposes



Not for navigational purposes.